Time;durP1;ratioP1;P1;durP2;ratioP2;P2;SDS_P1;SDS_P2;PMS_P1;PMS_P2;Temp;Humidity;BMP_temperature;BMP_pressure;BME280_temperature;BME280_humidity;BME280_pressure;Samples;Min_cycle;Max_cycle;Signal;HPM_P1;HPM_P2
2021/08/21 00:01:49;;;;;;;;;;;;;;;25.14;62.68;100908.50;5095912;28;1867;-54
2021/08/21 00:04:15;;;;;;;;;;;;;;;25.12;61.91;100897.81;5096118;28;1488;-54
2021/08/21 00:06:42;;;;;;;;;;;;;;;25.14;61.96;100922.03;5102721;28;1464;-55
2021/08/21 00:09:08;;;;;;;;;;;;;;;25.14;62.75;100919.31;5096542;28;1883;-53
2021/08/21 00:11:35;;;;;;;;;;;;;;;25.13;62.12;100890.56;5106694;28;1767;-53
2021/08/21 00:14:01;;;;;;;;;;;;;;;25.12;62.73;100894.28;5106293;28;1922;-53
2021/08/21 00:16:31;;;;;;;;;;;;;;;25.11;62.25;100896.16;5096452;28;2066;-53
2021/08/21 00:18:57;;;;;;;;;;;;;;;25.13;62.61;100896.81;5096174;28;1154;-53
2021/08/21 00:21:24;;;;;;;;;;;;;;;25.13;62.75;100907.66;5107200;28;1733;-54
2021/08/21 00:23:50;;;;;;;;;;;;;;;25.16;62.56;100895.63;5106917;28;1733;-53
2021/08/21 00:26:17;;;;;;;;;;;;;;;25.10;62.08;100886.34;5105622;28;1949;-53
2021/08/21 00:28:43;;;;;;;;;;;;;;;25.10;62.39;100886.34;5104295;28;1617;-53
2021/08/21 00:31:10;;;;;;;;;;;;;;;25.10;62.12;100885.50;5097826;28;1576;-53
2021/08/21 00:33:38;;;;;;;;;;;;;;;25.10;61.95;100896.31;5096267;28;1047;-53
2021/08/21 00:36:04;;;;;;;;;;;;;;;25.13;62.54;100909.53;5094957;28;1909;-53
2021/08/21 00:38:31;;;;;;;;;;;;;;;25.10;62.15;100902.56;5096090;28;1913;-53
2021/08/21 00:40:57;;;;;;;;;;;;;;;25.12;62.69;100922.19;5094831;28;1653;-53
2021/08/21 00:43:24;;;;;;;;;;;;;;;25.12;61.83;100910.53;5099319;28;1820;-53
2021/08/21 00:45:50;;;;;;;;;;;;;;;25.13;62.65;100912.22;5104826;28;1874;-53
2021/08/21 00:48:16;;;;;;;;;;;;;;;25.13;62.57;100917.63;5104118;28;1076;-53
2021/08/21 00:50:45;;;;;;;;;;;;;;;25.08;62.62;100901.06;5094735;28;1720;-53
2021/08/21 00:53:11;;;;;;;;;;;;;;;25.12;61.65;100902.41;5101241;28;1838;-53
2021/08/21 00:55:38;;;;;;;;;;;;;;;25.11;62.03;100908.81;5100085;28;1975;-53
2021/08/21 00:58:04;;;;;;;;;;;;;;;25.11;61.98;100914.22;5094590;28;1913;-53
2021/08/21 01:00:31;;;;;;;;;;;;;;;25.12;62.43;100922.19;5085266;28;1543;-53
2021/08/21 01:02:57;;;;;;;;;;;;;;;25.08;62.59;100911.88;5095658;28;1058;-53
2021/08/21 01:05:23;;;;;;;;;;;;;;;25.09;61.82;100909.00;5095093;28;1928;-53
2021/08/21 01:07:51;;;;;;;;;;;;;;;25.09;62.42;100905.44;5097401;28;1626;-53
2021/08/21 01:10:19;;;;;;;;;;;;;;;25.11;62.60;100911.53;5103474;28;1950;-53
2021/08/21 01:12:48;;;;;;;;;;;;;;;25.09;62.63;100908.16;5094804;28;1790;-53
2021/08/21 01:15:14;;;;;;;;;;;;;;;25.07;61.98;100899.34;5095268;28;1979;-54
2021/08/21 01:17:41;;;;;;;;;;;;;;;25.07;61.97;100891.25;5095182;28;1087;-54
2021/08/21 01:20:08;;;;;;;;;;;;;;;25.06;61.86;100893.09;5097597;28;1913;-53
2021/08/21 01:22:35;;;;;;;;;;;;;;;25.07;62.46;100889.41;5102717;28;2122;-53
2021/08/21 01:25:05;;;;;;;;;;;;;;;25.08;61.79;100899.19;5093291;28;1632;-53
2021/08/21 01:27:32;;;;;;;;;;;;;;;25.11;62.52;100908.81;5096403;28;1508;-53
2021/08/21 01:29:59;;;;;;;;;;;;;;;25.08;62.33;100898.34;5099773;28;1790;-54
2021/08/21 01:32:27;;;;;;;;;;;;;;;25.06;62.42;100905.81;5094790;28;2056;-53
2021/08/21 01:34:54;;;;;;;;;;;;;;;25.06;62.05;100905.81;5094393;28;2017;-53
2021/08/21 01:37:22;;;;;;;;;;;;;;;25.06;61.95;100903.09;5093778;28;1473;-53
2021/08/21 01:39:49;;;;;;;;;;;;;;;25.07;61.82;100902.06;5093789;28;1833;-53
2021/08/21 01:42:16;;;;;;;;;;;;;;;25.07;62.47;100902.06;5094578;28;1811;-53
2021/08/21 01:44:44;;;;;;;;;;;;;;;25.07;61.64;100907.47;5103413;28;1791;-54
2021/08/21 01:47:11;;;;;;;;;;;;;;;25.09;62.57;100922.53;5106330;28;1091;-53
2021/08/21 01:49:39;;;;;;;;;;;;;;;25.05;62.04;100909.50;5096301;28;1982;-53
2021/08/21 01:52:06;;;;;;;;;;;;;;;25.06;61.55;100898.53;5103974;28;1728;-53
2021/08/21 01:54:33;;;;;;;;;;;;;;;25.06;61.39;100905.81;5103055;28;1898;-56
2021/08/21 01:57:01;;;;;;;;;;;;;;;25.06;62.28;100908.50;5105849;28;1184;-53
2021/08/21 01:59:28;;;;;;;;;;;;;;;25.07;62.27;100921.88;5093690;28;1477;-53
2021/08/21 02:01:56;;;;;;;;;;;;;;;25.04;61.65;100907.84;5156058;22;3731;-53
2021/08/21 02:04:23;;;;;;;;;;;;;;;25.07;62.43;100923.72;5031126;28;1898;-54
2021/08/21 02:06:50;;;;;;;;;;;;;;;25.06;61.75;100925.59;5031964;28;1743;-54
2021/08/21 02:09:18;;;;;;;;;;;;;;;25.04;62.18;100910.53;5032723;28;1028;-53
2021/08/21 02:11:44;;;;;;;;;;;;;;;25.03;62.34;100923.25;5031761;28;2119;-54
2021/08/21 02:14:11;;;;;;;;;;;;;;;25.04;61.90;100918.66;5031634;28;1791;-54
2021/08/21 02:16:37;;;;;;;;;;;;;;;25.07;62.20;100926.41;5031791;28;2067;-53
2021/08/21 02:19:05;;;;;;;;;;;;;;;25.02;61.88;100926.94;5032022;28;1732;-54
2021/08/21 02:21:32;;;;;;;;;;;;;;;25.03;61.67;100917.81;5032534;28;1043;-54
2021/08/21 02:23:58;;;;;;;;;;;;;;;25.05;62.44;100931.16;5031445;28;1887;-53
2021/08/21 02:26:26;;;;;;;;;;;;;;;25.05;62.45;100929.31;5031322;28;1893;-55
2021/08/21 02:28:52;;;;;;;;;;;;;;;25.05;62.50;100931.16;5031410;28;1772;-53
2021/08/21 02:31:18;;;;;;;;;;;;;;;25.01;62.32;100936.09;5031334;28;1724;-53
2021/08/21 02:33:45;;;;;;;;;;;;;;;25.03;61.69;100923.25;5032651;28;1086;-53
2021/08/21 02:36:13;;;;;;;;;;;;;;;25.04;62.51;100945.72;5031709;28;2006;-53
2021/08/21 02:38:40;;;;;;;;;;;;;;;25.04;62.61;100943.84;5031413;28;1694;-54
2021/08/21 02:41:06;;;;;;;;;;;;;;;25.01;61.50;100934.22;5031258;28;1597;-53
2021/08/21 02:43:33;;;;;;;;;;;;;;;25.02;61.41;100927.78;5031348;28;1972;-54
2021/08/21 02:45:59;;;;;;;;;;;;;;;25.00;62.24;100948.75;5031489;28;1719;-53
2021/08/21 02:48:26;;;;;;;;;;;;;;;25.02;62.39;100946.72;5032433;28;1050;-53
2021/08/21 02:50:52;;;;;;;;;;;;;;;25.04;62.30;100951.97;5031572;28;1700;-53
2021/08/21 02:53:20;;;;;;;;;;;;;;;25.00;62.39;100945.22;5031534;28;1746;-53
2021/08/21 02:55:47;;;;;;;;;;;;;;;25.02;62.50;100960.25;5030868;28;1909;-53
2021/08/21 02:58:13;;;;;;;;;;;;;;;25.04;61.98;100962.78;5031040;28;1472;-53
2021/08/21 03:00:41;;;;;;;;;;;;;;;24.97;61.97;100929.34;5031170;28;1811;-53
2021/08/21 03:03:07;;;;;;;;;;;;;;;25.03;62.42;100955.69;5031780;28;1403;-53
2021/08/21 03:05:34;;;;;;;;;;;;;;;24.97;62.28;100949.09;5031789;28;1704;-53
2021/08/21 03:08:00;;;;;;;;;;;;;;;24.99;62.06;100974.13;5034842;28;1540;-53
2021/08/21 03:10:28;;;;;;;;;;;;;;;24.98;62.02;100960.75;5035070;28;1683;-54
2021/08/21 03:12:55;;;;;;;;;;;;;;;24.97;61.68;100962.63;5034832;28;1468;-53
2021/08/21 03:15:24;;;;;;;;;;;;;;;25.02;62.66;100964.81;5034671;28;1906;-54
2021/08/21 03:17:50;;;;;;;;;;;;;;;24.97;61.64;100946.41;5035802;28;1060;-53
2021/08/21 03:20:17;;;;;;;;;;;;;;;24.99;62.61;100963.31;5035368;28;1721;-53
2021/08/21 03:22:43;;;;;;;;;;;;;;;24.96;62.25;100952.81;5034879;28;1547;-54
2021/08/21 03:25:10;;;;;;;;;;;;;;;24.96;62.18;100952.81;5035195;28;1681;-53
2021/08/21 03:27:38;;;;;;;;;;;;;;;24.96;62.17;100966.34;5034970;28;1713;-54
2021/08/21 03:30:05;;;;;;;;;;;;;;;24.98;62.02;100967.00;5034805;28;1463;-53
2021/08/21 03:32:32;;;;;;;;;;;;;;;24.96;62.18;100970.91;5035938;28;1090;-54
2021/08/21 03:34:58;;;;;;;;;;;;;;;24.95;62.53;100975.50;5034929;28;1906;-54
2021/08/21 03:37:25;;;;;;;;;;;;;;;24.93;61.92;100965.84;5034884;28;1687;-53
2021/08/21 03:39:51;;;;;;;;;;;;;;;24.99;62.50;100971.44;5034958;28;1998;-53
2021/08/21 03:42:18;;;;;;;;;;;;;;;24.99;61.46;100976.84;5034645;28;1554;-54
2021/08/21 03:44:46;;;;;;;;;;;;;;;24.96;62.29;100971.75;5035361;28;1706;-54
2021/08/21 03:47:12;;;;;;;;;;;;;;;24.94;62.32;100981.91;5034947;28;1107;-53
2021/08/21 03:49:39;;;;;;;;;;;;;;;24.94;61.46;100971.06;5034144;28;1659;-54
2021/08/21 03:52:05;;;;;;;;;;;;;;;24.98;62.39;100994.06;5033967;28;1510;-53
2021/08/21 03:54:32;;;;;;;;;;;;;;;24.95;61.67;100986.31;5034103;28;1479;-54
2021/08/21 03:56:58;;;;;;;;;;;;;;;24.95;62.35;101001.72;5034903;28;1983;-53
2021/08/21 03:59:25;;;;;;;;;;;;;;;25.00;62.16;100999.31;5034600;28;2247;-53
2021/08/21 04:01:53;;;;;;;;;;;;;;;24.91;62.29;100979.56;5033647;28;1664;-53
2021/08/21 04:04:19;;;;;;;;;;;;;;;24.94;61.49;100981.91;5034777;28;2015;-53
2021/08/21 04:06:46;;;;;;;;;;;;;;;24.93;61.91;100990.19;5034404;28;1723;-54
2021/08/21 04:09:12;;;;;;;;;;;;;;;24.97;61.56;100989.69;5035012;28;996;-53
2021/08/21 04:11:39;;;;;;;;;;;;;;;24.96;61.61;100984.44;5033837;28;1695;-54
2021/08/21 04:14:05;;;;;;;;;;;;;;;24.99;62.08;101003.91;5033882;28;1841;-54
2021/08/21 04:16:32;;;;;;;;;;;;;;;25.02;62.21;101003.53;5033745;28;1902;-53
2021/08/21 04:18:59;;;;;;;;;;;;;;;25.03;62.16;100982.75;5034084;28;1912;-53
2021/08/21 04:21:26;;;;;;;;;;;;;;;25.08;61.66;100991.19;5034155;28;1945;-53
2021/08/21 04:23:53;;;;;;;;;;;;;;;25.09;61.48;100992.03;5034341;28;1623;-53
2021/08/21 04:26:19;;;;;;;;;;;;;;;25.15;61.67;100977.84;5033828;28;1633;-53
2021/08/21 04:28:46;;;;;;;;;;;;;;;25.20;61.32;100994.41;5032461;28;1671;-53
2021/08/21 04:31:12;;;;;;;;;;;;;;;25.23;61.38;100999.50;5033685;28;1422;-54
2021/08/21 04:33:39;;;;;;;;;;;;;;;25.23;61.43;100994.09;5034790;28;1095;-54
2021/08/21 04:36:07;;;;;;;;;;;;;;;25.24;61.65;101003.06;5033383;28;1977;-53
2021/08/21 04:38:33;;;;;;;;;;;;;;;25.21;60.97;100993.41;5033634;28;1664;-54
2021/08/21 04:41:00;;;;;;;;;;;;;;;25.17;61.73;100995.59;5033459;28;1547;-54
2021/08/21 04:43:26;;;;;;;;;;;;;;;25.23;61.23;101004.94;5033288;28;1699;-53
2021/08/21 04:45:53;;;;;;;;;;;;;;;25.33;60.85;101011.00;5033842;28;1837;-54
2021/08/21 04:48:19;;;;;;;;;;;;;;;25.34;60.77;100998.31;5034474;28;1040;-54
2021/08/21 04:50:46;;;;;;;;;;;;;;;25.36;61.20;101010.63;5032825;28;1632;-54
2021/08/21 04:53:14;;;;;;;;;;;;;;;25.36;61.11;101005.22;5033446;28;1667;-53
2021/08/21 04:55:40;;;;;;;;;;;;;;;25.35;60.81;101003.56;5033565;28;1910;-53
2021/08/21 04:58:07;;;;;;;;;;;;;;;25.27;60.78;101000.84;5033566;28;1808;-54
2021/08/21 05:00:33;;;;;;;;;;;;;;;25.24;61.44;101006.59;5032829;28;1589;-55
2021/08/21 05:02:59;;;;;;;;;;;;;;;25.20;61.63;100997.09;5033668;28;1405;-53
2021/08/21 05:05:28;;;;;;;;;;;;;;;25.24;60.81;101012.00;5032659;28;1717;-53
2021/08/21 05:07:54;;;;;;;;;;;;;;;25.20;61.57;101007.94;5033196;28;1679;-54
2021/08/21 05:10:22;;;;;;;;;;;;;;;25.22;61.06;101000.50;5033469;28;1556;-54
2021/08/21 05:12:48;;;;;;;;;;;;;;;25.19;61.74;101009.78;5033225;28;2121;-54
2021/08/21 05:15:15;;;;;;;;;;;;;;;25.22;60.79;101003.22;5032784;28;1707;-54
2021/08/21 05:17:42;;;;;;;;;;;;;;;25.16;61.63;101004.72;5033770;28;2010;-53
2021/08/21 05:20:14;;;;;;;;;;;;;;;25.21;60.97;101017.75;5033152;28;1998;-54
2021/08/21 05:22:47;;;;;;;;;;;;;;;25.20;61.69;101025.00;5033158;28;1798;-54
2021/08/21 05:25:14;;;;;;;;;;;;;;;25.20;60.94;101026.88;5024451;28;1671;-53
2021/08/21 05:27:42;;;;;;;;;;;;;;;25.22;61.55;101027.59;5032680;28;1676;-53
2021/08/21 05:30:09;;;;;;;;;;;;;;;25.24;61.31;101005.75;5031603;28;1899;-53
2021/08/21 05:32:36;;;;;;;;;;;;;;;25.27;61.78;101032.47;5033535;28;1074;-54
2021/08/21 05:35:02;;;;;;;;;;;;;;;25.28;61.72;101040.44;5032984;28;1840;-54
2021/08/21 05:37:29;;;;;;;;;;;;;;;25.26;61.21;101020.81;5032398;28;1894;-53
2021/08/21 05:39:55;;;;;;;;;;;;;;;25.28;60.78;101010.66;5032482;28;1705;-54
2021/08/21 05:42:22;;;;;;;;;;;;;;;25.32;61.60;101020.13;5032394;28;1789;-53
2021/08/21 05:44:50;;;;;;;;;;;;;;;25.35;61.25;101014.38;5031932;28;1620;-54
2021/08/21 05:47:16;;;;;;;;;;;;;;;25.34;61.12;101012.66;5032913;28;1074;-54
2021/08/21 05:49:43;;;;;;;;;;;;;;;25.35;61.52;101011.66;5031552;28;1980;-55
2021/08/21 05:52:09;;;;;;;;;;;;;;;25.39;61.32;101013.00;5032243;28;1501;-54
2021/08/21 05:54:36;;;;;;;;;;;;;;;25.38;60.71;101007.75;5032086;28;1476;-54
2021/08/21 05:57:02;;;;;;;;;;;;;;;25.37;61.40;101012.34;5032456;28;1902;-54
2021/08/21 05:59:31;;;;;;;;;;;;;;;25.35;61.35;101010.84;5032681;28;1140;-53
2021/08/21 06:01:59;;;;;;;;;;;;;;;25.41;61.00;101007.44;5031452;28;1682;-54
2021/08/21 06:04:25;;;;;;;;;;;;;;;25.38;61.44;101008.59;5031545;28;1898;-54
2021/08/21 06:06:52;;;;;;;;;;;;;;;25.39;60.67;101001.34;5032348;28;1693;-53
2021/08/21 06:09:20;;;;;;;;;;;;;;;25.42;61.39;101019.09;5032777;28;1116;-54
2021/08/21 06:11:46;;;;;;;;;;;;;;;25.44;60.62;101011.66;5032039;28;2142;-54
2021/08/21 06:14:13;;;;;;;;;;;;;;;25.43;61.49;101009.94;5032070;28;1833;-54
2021/08/21 06:16:39;;;;;;;;;;;;;;;25.47;61.43;101022.16;5032326;28;1902;-54
2021/08/21 06:19:07;;;;;;;;;;;;;;;25.46;61.30;101009.63;5031890;28;1953;-55
2021/08/21 06:21:34;;;;;;;;;;;;;;;25.46;61.05;101015.88;5032860;28;1066;-54
2021/08/21 06:24:00;;;;;;;;;;;;;;;25.46;61.40;101005.03;5031643;28;1885;-54
2021/08/21 06:26:26;;;;;;;;;;;;;;;25.44;61.28;101007.06;5031544;28;1651;-54
2021/08/21 06:28:53;;;;;;;;;;;;;;;25.47;61.27;101005.91;5031785;28;1824;-54
2021/08/21 06:31:19;;;;;;;;;;;;;;;25.47;60.90;101016.75;5032090;28;1613;-53
2021/08/21 06:33:46;;;;;;;;;;;;;;;25.46;60.95;101009.63;5032576;28;1098;-54
2021/08/21 06:36:14;;;;;;;;;;;;;;;25.48;60.85;101008.41;5031467;28;1902;-54
2021/08/21 06:38:40;;;;;;;;;;;;;;;25.45;61.52;100995.25;5031892;28;1844;-53
2021/08/21 06:41:07;;;;;;;;;;;;;;;25.46;61.35;100998.78;5031616;28;1851;-54
2021/08/21 06:43:33;;;;;;;;;;;;;;;25.52;61.33;101014.34;5031442;28;1606;-53
2021/08/21 06:45:59;;;;;;;;;;;;;;;25.47;61.09;101012.16;5030153;28;1470;-53
2021/08/21 06:48:26;;;;;;;;;;;;;;;25.49;61.50;101006.56;5032511;28;1093;-54
2021/08/21 06:50:53;;;;;;;;;;;;;;;25.51;61.36;100999.13;5031663;28;1997;-55
2021/08/21 06:53:21;;;;;;;;;;;;;;;25.48;61.36;101008.41;5031005;28;1727;-54
2021/08/21 06:55:48;;;;;;;;;;;;;;;25.54;60.71;101017.72;5031456;28;1625;-54
2021/08/21 06:58:14;;;;;;;;;;;;;;;25.50;60.75;101000.97;5030864;28;1902;-54
2021/08/21 07:00:41;;;;;;;;;;;;;;;25.53;61.60;101026.88;5030930;28;2008;-53
2021/08/21 07:03:09;;;;;;;;;;;;;;;25.50;60.71;101013.66;5030491;28;1730;-53
2021/08/21 07:05:35;;;;;;;;;;;;;;;25.49;61.49;101015.53;5031373;28;1680;-54
2021/08/21 07:08:02;;;;;;;;;;;;;;;25.48;60.66;101008.41;5031057;28;1684;-54
2021/08/21 07:10:30;;;;;;;;;;;;;;;25.53;61.26;101024.16;5030984;28;1559;-54
2021/08/21 07:12:56;;;;;;;;;;;;;;;25.51;61.69;101034.31;5031233;28;1647;-54
2021/08/21 07:15:23;;;;;;;;;;;;;;;25.52;61.09;101011.63;5031368;28;1490;-54
2021/08/21 07:17:49;;;;;;;;;;;;;;;25.53;61.32;101025.00;5031835;28;1906;-53
2021/08/21 07:20:16;;;;;;;;;;;;;;;25.50;61.56;101014.50;5031096;28;1872;-53
2021/08/21 07:22:42;;;;;;;;;;;;;;;25.51;61.46;101028.91;5031143;28;1746;-54
2021/08/21 07:25:09;;;;;;;;;;;;;;;25.52;61.33;101009.75;5031424;28;1746;-54
2021/08/21 07:27:37;;;;;;;;;;;;;;;25.53;60.80;101014.16;5031152;28;1732;-54
2021/08/21 07:30:03;;;;;;;;;;;;;;;25.52;61.60;101014.34;5030866;28;1566;-54
2021/08/21 07:32:30;;;;;;;;;;;;;;;25.54;61.68;101020.44;5032072;28;1051;-54
2021/08/21 07:34:57;;;;;;;;;;;;;;;25.56;60.96;101023.81;5030918;28;1713;-54
2021/08/21 07:37:23;;;;;;;;;;;;;;;25.53;61.44;101018.75;5030586;28;1910;-54
2021/08/21 07:39:51;;;;;;;;;;;;;;;25.56;61.38;101021.09;5030722;28;1487;-53
2021/08/21 07:42:17;;;;;;;;;;;;;;;25.52;61.69;101023.31;5031150;28;1687;-53
2021/08/21 07:44:45;;;;;;;;;;;;;;;25.55;61.37;101016.72;5029452;28;1758;-54
2021/08/21 07:47:11;;;;;;;;;;;;;;;25.54;61.18;101018.56;5030110;28;1128;-54
2021/08/21 07:49:38;;;;;;;;;;;;;;;25.55;61.57;101014.00;5030628;28;1751;-54
2021/08/21 07:52:05;;;;;;;;;;;;;;;25.54;60.86;101026.69;5030293;28;1740;-54
2021/08/21 07:54:31;;;;;;;;;;;;;;;25.57;61.60;101026.34;5033129;28;1593;-54
2021/08/21 07:57:01;;;;;;;;;;;;;;;25.59;60.79;101026.19;5034476;28;1906;-53
2021/08/21 07:59:31;;;;;;;;;;;;;;;25.62;60.36;101024.97;5034797;28;1476;-54
2021/08/21 08:02:01;;;;;;;;;;;;;;;25.63;60.98;101029.41;5028652;28;1652;-54
2021/08/21 08:04:29;;;;;;;;;;;;;;;25.56;61.42;101018.38;5034027;28;1458;-54
2021/08/21 08:07:04;;;;;;;;;;;;;;;25.62;61.13;101025.81;5034951;28;1676;-54
2021/08/21 08:09:31;;;;;;;;;;;;;;;25.59;60.99;101018.91;5035266;28;1762;-55
2021/08/21 08:11:58;;;;;;;;;;;;;;;25.57;61.31;101030.94;5034584;28;997;-54
2021/08/21 08:14:25;;;;;;;;;;;;;;;25.57;61.59;101014.69;5033655;28;1813;-54
2021/08/21 08:16:55;;;;;;;;;;;;;;;25.56;61.62;101023.81;5032307;28;1902;-54
2021/08/21 08:19:27;;;;;;;;;;;;;;;25.59;61.04;101020.75;5033649;28;1798;-54
2021/08/21 08:24:35;;;;;;;;;;;;;;;25.63;60.13;101016.69;5034459;28;2330;-53
2021/08/21 08:27:05;;;;;;;;;;;;;;;25.60;61.24;101014.31;5034781;28;1016;-54
2021/08/21 08:29:32;;;;;;;;;;;;;;;25.56;61.26;101010.25;5016792;28;1712;-54
2021/08/21 08:31:59;;;;;;;;;;;;;;;25.58;61.35;101016.34;5034088;28;1548;-54
2021/08/21 08:34:44;;;;;;;;;;;;;;;25.58;60.91;101029.88;5034242;28;1735;-54
2021/08/21 08:37:14;;;;;;;;;;;;;;;25.57;61.69;101020.94;5029029;28;1973;-54
2021/08/21 08:39:42;;;;;;;;;;;;;;;25.52;61.07;101003.50;5027866;28;1951;-54
2021/08/21 08:42:24;;;;;;;;;;;;;;;25.59;61.16;101021.59;5033990;28;1799;-54
2021/08/21 08:44:53;;;;;;;;;;;;;;;25.54;61.46;101023.13;5015058;28;1820;-54
2021/08/21 08:47:21;;;;;;;;;;;;;;;25.58;61.47;101024.47;5034386;28;1142;-54
2021/08/21 08:49:49;;;;;;;;;;;;;;;25.58;61.10;101019.06;5033580;28;1823;-53
2021/08/21 08:52:31;;;;;;;;;;;;;;;25.56;61.11;100996.72;5033078;28;1589;-54
2021/08/21 08:55:07;;;;;;;;;;;;;;;25.59;61.67;101010.78;5021091;28;1957;-53
2021/08/21 08:57:37;;;;;;;;;;;;;;;25.59;61.66;101015.34;5021028;28;1938;-54
2021/08/21 09:00:05;;;;;;;;;;;;;;;25.57;61.52;100998.44;5033624;28;1783;-54
2021/08/21 09:02:36;;;;;;;;;;;;;;;25.59;61.23;101005.34;5033610;28;1656;-54
2021/08/21 09:05:05;;;;;;;;;;;;;;;25.56;61.75;101004.84;5033083;28;1694;-54
2021/08/21 09:07:39;;;;;;;;;;;;;;;25.57;61.64;100996.56;5031740;28;1826;-55
2021/08/21 09:10:22;;;;;;;;;;;;;;;25.57;61.04;100995.72;5032220;28;1440;-54
2021/08/21 09:12:55;;;;;;;;;;;;;;;25.59;61.29;101008.06;5033206;28;1783;-54
2021/08/21 09:15:42;;;;;;;;;;;;;;;25.59;61.55;100993.69;5033400;28;1947;-53
2021/08/21 09:18:24;;;;;;;;;;;;;;;25.58;61.61;100989.28;5024166;28;1907;-54
2021/08/21 09:20:55;;;;;;;;;;;;;;;25.59;61.64;100988.28;5028042;28;1855;-55
2021/08/21 09:23:26;;;;;;;;;;;;;;;25.62;61.49;100997.91;5032837;28;1491;-54
2021/08/21 09:25:57;;;;;;;;;;;;;;;25.62;61.01;100987.91;5033120;28;1727;-54
2021/08/21 09:28:26;;;;;;;;;;;;;;;25.58;61.55;100981.16;5033426;28;1778;-54
2021/08/21 09:31:02;;;;;;;;;;;;;;;25.56;61.83;100980.47;5032401;28;1727;-54
2021/08/21 09:33:29;;;;;;;;;;;;;;;25.60;61.17;100995.34;5033281;28;1792;-54
2021/08/21 09:35:56;;;;;;;;;;;;;;;25.60;61.23;101000.78;5030980;28;1770;-54
2021/08/21 09:38:23;;;;;;;;;;;;;;;25.60;61.08;100970.97;5031426;28;1910;-54
2021/08/21 09:40:49;;;;;;;;;;;;;;;25.57;61.15;100955.09;5031788;28;1647;-54
2021/08/21 09:43:22;;;;;;;;;;;;;;;25.59;60.94;100972.84;5029505;28;1589;-53
2021/08/21 09:45:48;;;;;;;;;;;;;;;25.60;61.65;100962.84;5031510;28;1778;-54
2021/08/21 09:48:15;;;;;;;;;;;;;;;25.63;61.66;100967.94;5028888;28;1718;-54
2021/08/21 09:50:42;;;;;;;;;;;;;;;25.60;61.59;100965.56;5029273;28;1931;-54
2021/08/21 09:53:09;;;;;;;;;;;;;;;25.61;60.90;100988.94;5030979;28;1762;-54
2021/08/21 09:55:36;;;;;;;;;;;;;;;25.61;61.66;100975.41;5031872;28;2071;-54
2021/08/21 09:58:04;;;;;;;;;;;;;;;25.63;61.85;100961.69;5028520;28;1909;-55
2021/08/21 10:00:32;;;;;;;;;;;;;;;25.63;61.17;100973.34;5030695;28;1758;-54
2021/08/21 10:02:59;;;;;;;;;;;;;;;25.63;61.97;100973.34;5032239;28;1766;-54
2021/08/21 10:05:27;;;;;;;;;;;;;;;25.62;60.89;100966.25;5029524;28;1535;-54
2021/08/21 10:07:58;;;;;;;;;;;;;;;25.58;61.08;100960.31;5031457;28;1732;-54
2021/08/21 10:10:28;;;;;;;;;;;;;;;25.64;61.91;100975.03;5030864;28;1543;-54
2021/08/21 10:12:58;;;;;;;;;;;;;;;25.63;60.92;100967.94;5030189;28;1428;-54
2021/08/21 10:15:25;;;;;;;;;;;;;;;25.63;61.12;100977.94;5031178;28;1732;-54
2021/08/21 10:17:55;;;;;;;;;;;;;;;25.66;60.83;100969.44;5032336;28;1910;-54
2021/08/21 10:20:22;;;;;;;;;;;;;;;25.64;60.96;100964.19;5031028;28;1616;-54
2021/08/21 10:22:49;;;;;;;;;;;;;;;25.61;61.71;100959.16;5029996;28;1776;-54
2021/08/21 10:25:15;;;;;;;;;;;;;;;25.66;61.21;100969.44;5030100;28;1819;-54
2021/08/21 10:27:45;;;;;;;;;;;;;;;25.64;61.40;100974.19;5031391;28;1636;-53
2021/08/21 10:30:14;;;;;;;;;;;;;;;25.61;61.99;100967.28;5030329;28;1763;-54
2021/08/21 10:32:42;;;;;;;;;;;;;;;25.58;61.40;100962.19;5029071;28;1822;-54
2021/08/21 10:35:12;;;;;;;;;;;;;;;25.61;62.06;100961.84;5030904;28;1784;-54
2021/08/21 10:37:40;;;;;;;;;;;;;;;25.60;61.99;100962.84;5030137;28;1977;-54
2021/08/21 10:40:25;;;;;;;;;;;;;;;25.57;61.76;100957.81;5031262;28;1734;-55
2021/08/21 10:42:53;;;;;;;;;;;;;;;25.57;61.45;100949.69;5029537;28;1665;-54
2021/08/21 10:45:34;;;;;;;;;;;;;;;25.59;61.25;100955.78;5030039;28;1742;-54
2021/08/21 10:48:01;;;;;;;;;;;;;;;25.57;61.81;100953.22;5030230;28;1741;-54
2021/08/21 10:50:35;;;;;;;;;;;;;;;25.58;61.15;100941.38;5031325;28;1653;-54
2021/08/21 10:53:05;;;;;;;;;;;;;;;25.60;61.90;100946.63;5030795;28;1629;-54
2021/08/21 10:55:40;;;;;;;;;;;;;;;25.61;61.48;100948.31;5030554;28;1557;-54
2021/08/21 10:58:13;;;;;;;;;;;;;;;25.62;61.72;100952.69;5030956;28;1973;-54
2021/08/21 11:00:47;;;;;;;;;;;;;;;25.64;61.11;100942.53;5030872;28;1744;-53
2021/08/21 11:03:14;;;;;;;;;;;;;;;25.62;61.17;100944.56;5024849;28;1691;-54
2021/08/21 11:05:52;;;;;;;;;;;;;;;25.62;61.11;100938.31;5030419;28;1782;-54
2021/08/21 11:08:20;;;;;;;;;;;;;;;25.64;61.26;100950.66;5028734;28;1684;-54
2021/08/21 11:10:48;;;;;;;;;;;;;;;25.58;61.82;100937.81;5027923;28;1449;-54
2021/08/21 11:13:32;;;;;;;;;;;;;;;25.63;61.25;100951.69;5029042;28;1333;-54
2021/08/21 11:16:00;;;;;;;;;;;;;;;25.63;61.18;100945.44;5018437;28;1787;-54
2021/08/21 11:18:27;;;;;;;;;;;;;;;25.61;61.12;100932.06;5031400;28;1898;-55
2021/08/21 11:20:55;;;;;;;;;;;;;;;25.63;62.02;100935.44;5030099;28;1778;-54
2021/08/21 11:23:22;;;;;;;;;;;;;;;25.65;61.03;100938.81;5029275;28;1683;-55
2021/08/21 11:25:50;;;;;;;;;;;;;;;25.64;61.56;100933.56;5029893;28;1643;-54
2021/08/21 11:28:25;;;;;;;;;;;;;;;25.64;61.03;100931.69;5026199;28;1783;-54
2021/08/21 11:31:15;;;;;;;;;;;;;;;25.63;61.01;100924.59;5034094;28;1673;-53
2021/08/21 11:33:43;;;;;;;;;;;;;;;25.65;61.32;100917.16;5015117;28;1849;-55
2021/08/21 11:36:11;;;;;;;;;;;;;;;25.65;61.45;100919.84;5033049;28;1740;-54
2021/08/21 11:38:39;;;;;;;;;;;;;;;25.68;61.95;100916.78;5032796;28;2187;-54
2021/08/21 11:41:11;;;;;;;;;;;;;;;25.63;61.93;100919.19;5034596;28;1739;-54
2021/08/21 11:43:41;;;;;;;;;;;;;;;25.69;61.54;100925.78;5034603;28;1908;-54
2021/08/21 11:46:08;;;;;;;;;;;;;;;25.70;61.45;100919.31;5033951;28;1873;-54
2021/08/21 11:48:36;;;;;;;;;;;;;;;25.68;60.90;100922.19;5035060;28;1637;-54
2021/08/21 11:51:05;;;;;;;;;;;;;;;25.69;61.54;100929.31;5034496;28;1761;-54
2021/08/21 11:53:34;;;;;;;;;;;;;;;25.70;61.47;100932.88;5033180;28;1543;-54
2021/08/21 11:56:01;;;;;;;;;;;;;;;25.67;61.00;100915.09;5032589;28;2623;-54
2021/08/21 11:58:28;;;;;;;;;;;;;;;25.70;61.75;100920.16;5034178;28;1902;-54
2021/08/21 12:01:02;;;;;;;;;;;;;;;25.68;61.59;100911.38;5028792;28;1666;-54
2021/08/21 12:03:35;;;;;;;;;;;;;;;25.68;61.71;100911.38;5030989;28;1497;-54
2021/08/21 12:06:01;;;;;;;;;;;;;;;25.72;61.88;100918.13;5030938;28;1470;-54
2021/08/21 12:08:28;;;;;;;;;;;;;;;25.71;61.47;100916.44;5032545;28;1518;-54
2021/08/21 12:10:57;;;;;;;;;;;;;;;25.70;61.71;100903.06;5033069;28;1424;-54
2021/08/21 12:13:26;;;;;;;;;;;;;;;25.72;60.88;100912.69;5034341;28;1849;-54
2021/08/21 12:15:53;;;;;;;;;;;;;;;25.65;61.54;100911.72;5033706;28;2028;-54
2021/08/21 12:18:25;;;;;;;;;;;;;;;25.69;61.48;100896.81;5034306;28;1985;-54
2021/08/21 12:20:52;;;;;;;;;;;;;;;25.63;60.97;100886.69;5033538;28;1897;-54
2021/08/21 12:23:20;;;;;;;;;;;;;;;25.69;61.08;100907.66;5033651;28;1688;-54
2021/08/21 12:25:51;;;;;;;;;;;;;;;25.69;61.01;100907.66;5033402;28;1369;-54
2021/08/21 12:28:20;;;;;;;;;;;;;;;25.66;61.61;100891.75;5031743;28;1480;-54
2021/08/21 12:30:54;;;;;;;;;;;;;;;25.69;61.48;100896.81;5026347;28;1579;-54
2021/08/21 12:33:28;;;;;;;;;;;;;;;25.70;61.15;100894.94;5034367;28;1744;-54
2021/08/21 12:35:55;;;;;;;;;;;;;;;25.65;61.10;100884.66;5033050;28;1620;-54
2021/08/21 12:38:22;;;;;;;;;;;;;;;25.70;61.29;100889.53;5033078;28;2578;-54
2021/08/21 12:41:05;;;;;;;;;;;;;;;25.72;61.04;100888.31;5032307;28;1724;-54
2021/08/21 12:43:33;;;;;;;;;;;;;;;25.74;61.29;100885.44;5029008;28;1464;-54
2021/08/21 12:45:59;;;;;;;;;;;;;;;25.70;61.07;100893.06;5033107;28;1669;-54
2021/08/21 12:48:26;;;;;;;;;;;;;;;25.68;61.28;100876.16;5031332;28;1378;-55
2021/08/21 12:50:52;;;;;;;;;;;;;;;25.72;61.33;100893.75;5031142;28;1721;-55
2021/08/21 12:53:19;;;;;;;;;;;;;;;25.72;61.12;100898.31;5030483;28;1742;-54
2021/08/21 12:55:46;;;;;;;;;;;;;;;25.68;61.26;100881.56;5031535;28;1712;-53